Time;durP1;ratioP1;P1;durP2;ratioP2;P2;SDS_P1;SDS_P2;PMS_P1;PMS_P2;Temp;Humidity;BMP_temperature;BMP_pressure;BME280_temperature;BME280_humidity;BME280_pressure;Samples;Min_cycle;Max_cycle;Signal;HPM_P1;HPM_P2
2021/03/09 04:05:10;;;;;;;11.75;6.30;;;;;;;-4.03;100.00;99919.58;1723782;78;21669;-60
2021/03/09 04:07:39;;;;;;;9.88;6.30;;;;;;;-4.02;100.00;99923.75;1751940;79;22572;-61
2021/03/09 04:10:08;;;;;;;10.03;5.53;;;;;;;-4.01;100.00;99927.95;1755118;79;20961;-61
2021/03/09 04:12:36;;;;;;;8.45;5.53;;;;;;;-3.98;100.00;99931.58;1754890;79;21536;-62
2021/03/09 04:15:06;;;;;;;8.20;5.05;;;;;;;-3.96;100.00;99934.83;1750526;79;23281;-60
2021/03/09 04:17:34;;;;;;;8.58;4.67;;;;;;;-3.92;100.00;99933.70;1755251;79;21119;-61
2021/03/09 04:20:04;;;;;;;9.78;4.83;;;;;;;-3.88;100.00;99929.23;1755084;79;21583;-61
2021/03/09 04:22:32;;;;;;;8.30;5.25;;;;;;;-3.84;100.00;99933.22;1752137;79;21057;-66
2021/03/09 04:25:01;;;;;;;9.15;5.45;;;;;;;-3.81;100.00;99934.30;1758243;79;21234;-61
2021/03/09 04:27:29;;;;;;;10.28;5.00;;;;;;;-3.80;100.00;99935.92;1731811;80;23480;-62
2021/03/09 04:29:59;;;;;;;8.95;5.53;;;;;;;-3.80;100.00;99936.38;1742979;81;21491;-62
2021/03/09 04:32:27;;;;;;;8.53;4.92;;;;;;;-3.81;100.00;99946.22;1756277;79;21065;-66
2021/03/09 04:34:55;;;;;;;9.05;5.05;;;;;;;-3.83;100.00;99949.30;1752060;79;21135;-62
2021/03/09 04:37:26;;;;;;;8.20;4.97;;;;;;;-3.84;100.00;99946.41;1748960;79;21133;-62
2021/03/09 04:39:55;;;;;;;9.00;5.30;;;;;;;-3.87;100.00;99938.50;1754769;80;22703;-63
2021/03/09 04:42:24;;;;;;;9.40;5.33;;;;;;;-3.86;100.00;99941.86;1756485;79;21625;-61
2021/03/09 04:44:52;;;;;;;9.08;5.67;;;;;;;-3.85;100.00;99953.23;1753908;79;21041;-63
2021/03/09 04:47:21;;;;;;;9.00;5.35;;;;;;;-3.84;100.00;99952.31;1756142;79;21847;-62
2021/03/09 04:49:56;;;;;;;10.08;6.08;;;;;;;-3.82;100.00;99954.32;1730798;81;21617;-63
2021/03/09 04:52:25;;;;;;;10.20;5.97;;;;;;;-3.80;100.00;99957.56;1758900;79;21135;-66
2021/03/09 04:54:54;;;;;;;11.35;5.80;;;;;;;-3.75;100.00;99958.54;1733815;81;21098;-62
2021/03/09 04:57:31;;;;;;;8.85;5.53;;;;;;;-3.52;100.00;99964.25;1760444;79;21179;-63
2021/03/09 04:59:59;;;;;;;10.13;5.62;;;;;;;-3.09;100.00;99966.97;1753567;79;20966;-63
2021/03/09 05:02:28;;;;;;;9.73;5.62;;;;;;;-2.58;100.00;99965.59;1754415;79;21199;-65
2021/03/09 05:04:57;;;;;;;8.58;5.55;;;;;;;-2.09;100.00;99965.99;1765419;79;22791;-61
2021/03/09 05:07:25;;;;;;;10.03;6.03;;;;;;;-1.66;100.00;99965.02;1780323;79;21014;-62
2021/03/09 05:09:53;;;;;;;10.20;6.05;;;;;;;-1.32;100.00;99962.53;1785666;78;21173;-62
2021/03/09 05:12:22;;;;;;;9.05;6.15;;;;;;;-1.04;100.00;99966.38;1779073;79;20987;-61
2021/03/09 05:14:50;;;;;;;10.98;7.37;;;;;;;-0.74;100.00;99971.73;1782033;80;21018;-61
2021/03/09 05:17:18;;;;;;;10.05;7.00;;;;;;;-0.39;100.00;99973.30;1789535;79;21471;-61
2021/03/09 05:19:47;;;;;;;10.48;6.80;;;;;;;-0.09;100.00;99978.25;1781454;79;20967;-63
2021/03/09 05:22:16;;;;;;;11.35;7.00;;;;;;;0.12;100.00;99975.27;1784950;79;20943;-63
2021/03/09 05:24:45;;;;;;;10.98;6.67;;;;;;;0.31;100.00;99982.77;1790776;79;21054;-65
2021/03/09 05:27:13;;;;;;;8.33;5.50;;;;;;;0.46;100.00;99982.33;1778715;79;21205;-64
2021/03/09 05:29:42;;;;;;;8.43;4.75;;;;;;;0.62;100.00;99990.05;1789361;78;21158;-63
2021/03/09 05:32:11;;;;;;;7.75;4.83;;;;;;;0.73;100.00;99992.55;1790594;79;21500;-63
2021/03/09 05:34:40;;;;;;;8.40;5.28;;;;;;;0.83;100.00;99993.87;1734579;81;20955;-63
2021/03/09 05:37:10;;;;;;;6.80;4.45;;;;;;;0.96;100.00;99997.06;1783057;80;21566;-64
2021/03/09 05:39:38;;;;;;;7.10;3.95;;;;;;;1.05;100.00;100007.03;1781308;78;21105;-64
2021/03/09 05:42:08;;;;;;;6.45;4.10;;;;;;;1.08;100.00;100011.44;1789660;79;21363;-63
2021/03/09 05:44:37;;;;;;;6.55;4.22;;;;;;;1.14;100.00;100018.64;1781003;78;21643;-63
2021/03/09 05:47:06;;;;;;;7.83;4.00;;;;;;;1.17;100.00;100017.55;1786425;78;21613;-63
2021/03/09 05:49:36;;;;;;;6.12;3.55;;;;;;;1.26;100.00;100026.26;1780952;79;20974;-66
2021/03/09 05:52:05;;;;;;;5.40;3.33;;;;;;;1.39;100.00;100026.84;1777371;80;21113;-67
2021/03/09 05:54:34;;;;;;;6.92;3.80;;;;;;;1.68;100.00;100027.75;1776445;79;21202;-69
2021/03/09 05:57:02;;;;;;;5.22;3.00;;;;;;;2.02;100.00;100023.55;1778904;79;21098;-69
2021/03/09 05:59:30;;;;;;;5.90;3.02;;;;;;;2.37;100.00;100032.03;1770873;79;21572;-67
2021/03/09 06:01:59;;;;;;;5.47;3.10;;;;;;;2.67;100.00;100025.11;1772167;80;21130;-67
2021/03/09 06:04:28;;;;;;;5.97;3.75;;;;;;;2.85;100.00;100030.37;1795671;79;21061;-65
2021/03/09 06:06:56;;;;;;;5.47;2.70;;;;;;;3.01;100.00;100026.73;1750368;80;21208;-64
2021/03/09 06:09:37;;;;;;;6.30;3.00;;;;;;;3.19;100.00;100033.73;1717236;81;21228;-63
2021/03/09 06:12:23;;;;;;;5.67;2.62;;;;;;;3.46;100.00;100045.36;1773913;79;21542;-63
2021/03/09 06:15:01;;;;;;;4.33;2.60;;;;;;;3.68;100.00;100040.79;1776785;79;21089;-64
2021/03/09 06:17:38;;;;;;;4.45;2.40;;;;;;;3.55;100.00;100054.80;1773134;80;20931;-65
2021/03/09 06:20:18;;;;;;;4.47;2.40;;;;;;;3.21;100.00;100056.29;1763568;79;21467;-67
2021/03/09 06:22:53;;;;;;;4.10;1.90;;;;;;;2.72;100.00;100057.67;1779162;79;21858;-65
2021/03/09 06:25:33;;;;;;;4.55;2.80;;;;;;;2.27;100.00;100071.06;1773521;79;21194;-65
2021/03/09 06:28:03;;;;;;;3.70;2.12;;;;;;;1.80;100.00;100071.33;1776184;79;21089;-64
2021/03/09 06:30:34;;;;;;;4.80;2.47;;;;;;;1.44;100.00;100070.95;1780895;79;21176;-66
2021/03/09 06:33:03;;;;;;;;;;;;;;;1.14;100.00;100082.01;1769545;79;21575;-64
2021/03/09 06:35:42;;;;;;;3.40;2.08;;;;;;;0.89;100.00;100075.49;1753901;79;20146;-64
2021/03/09 06:38:26;;;;;;;3.83;2.20;;;;;;;0.68;100.00;100087.02;1772189;80;22171;-63
2021/03/09 06:41:18;;;;;;;4.65;3.08;;;;;;;0.59;100.00;100079.59;1779683;79;21195;-63
2021/03/09 06:44:00;;;;;;;4.00;2.55;;;;;;;0.59;100.00;100094.98;1773197;79;21153;-62
2021/03/09 06:46:29;;;;;;;4.75;2.92;;;;;;;0.50;100.00;100091.08;1765617;79;22175;-63
2021/03/09 06:49:04;;;;;;;6.83;2.72;;;;;;;0.39;100.00;100094.02;1731829;82;21082;-63
2021/03/09 06:51:36;;;;;;;5.92;2.67;;;;;;;0.30;100.00;100096.01;1775747;79;21149;-63
2021/03/09 06:54:08;;;;;;;5.53;2.67;;;;;;;0.32;100.00;100097.19;1772768;80;21178;-64
2021/03/09 06:56:41;;;;;;;5.03;2.80;;;;;;;0.32;100.00;100098.00;1772107;79;21185;-66
2021/03/09 06:59:27;;;;;;;3.90;2.40;;;;;;;0.39;100.00;100100.90;1770585;80;22377;-63
2021/03/09 07:02:11;;;;;;;3.95;2.15;;;;;;;0.68;100.00;100108.82;1770370;79;21141;-63
2021/03/09 07:04:45;;;;;;;4.75;2.77;;;;;;;1.15;100.00;100099.84;1770684;80;20956;-64
2021/03/09 07:07:15;;;;;;;6.47;3.08;;;;;;;1.55;100.00;100099.08;1762413;79;21136;-64
2021/03/09 07:10:10;;;;;;;4.85;2.90;;;;;;;1.74;100.00;100100.92;1760854;81;20992;-63
2021/03/09 07:12:43;;;;;;;3.52;2.00;;;;;;;1.69;100.00;100103.08;1752057;80;21392;-63
2021/03/09 07:15:14;;;;;;;6.35;3.30;;;;;;;1.45;100.00;100100.81;1761303;79;21676;-63
2021/03/09 07:17:43;;;;;;;4.20;2.37;;;;;;;1.23;100.00;100102.25;1764330;79;21199;-67
2021/03/09 07:20:13;;;;;;;5.25;2.60;;;;;;;1.08;100.00;100116.69;1774946;79;21962;-63
2021/03/09 07:22:47;;;;;;;4.17;2.45;;;;;;;1.02;100.00;100110.75;1729639;80;21215;-63
2021/03/09 07:25:16;;;;;;;;;;;;;;;1.00;100.00;100112.65;1733679;80;22069;-63
2021/03/09 07:27:52;;;;;;;6.65;2.37;;;;;;;0.98;100.00;100114.52;1728874;80;20227;-63
2021/03/09 07:30:22;;;;;;;5.42;2.75;;;;;;;0.97;100.00;100123.16;1720030;80;22074;-62
2021/03/09 07:32:53;;;;;;;6.35;2.50;;;;;;;1.03;100.00;100123.95;1732135;80;21609;-62
2021/03/09 07:35:23;;;;;;;4.90;2.37;;;;;;;1.10;100.00;100124.25;1733793;80;21164;-62
2021/03/09 07:37:52;;;;;;;5.80;2.35;;;;;;;1.30;100.00;100123.45;1721597;80;22882;-62
2021/03/09 07:40:23;;;;;;;4.25;2.52;;;;;;;1.79;100.00;100123.20;1725500;80;21148;-62
2021/03/09 07:42:51;;;;;;;3.77;2.02;;;;;;;2.46;100.00;100121.72;1724633;80;21631;-62
2021/03/09 07:45:27;;;;;;;3.00;1.67;;;;;;;3.21;100.00;100121.48;1726715;81;21189;-63
2021/03/09 07:47:58;;;;;;;4.17;2.22;;;;;;;3.79;100.00;100125.20;1735662;80;21554;-62
2021/03/09 07:50:33;;;;;;;4.08;2.08;;;;;;;4.12;100.00;100126.84;1729220;80;22293;-61
2021/03/09 07:53:12;;;;;;;4.50;2.30;;;;;;;4.00;100.00;100123.66;1688403;81;21092;-62
2021/03/09 07:55:45;;;;;;;4.90;2.52;;;;;;;3.69;100.00;100124.89;1726446;80;21470;-61
2021/03/09 08:12:51;;;;;;;4.20;1.60;;;;;;;1.53;100.00;100143.37;1750330;79;22760;-61
2021/03/09 08:15:19;;;;;;;3.95;1.92;;;;;;;1.56;100.00;100144.41;1730849;82;21512;-62
2021/03/09 08:17:48;;;;;;;4.37;2.00;;;;;;;1.62;100.00;100143.06;1733000;82;21425;-63
2021/03/09 08:23:35;;;;;;;5.77;2.20;;;;;;;1.59;100.00;100145.44;1814732;78;24410;-61
2021/03/09 08:26:17;;;;;;;4.87;2.83;;;;;;;1.51;100.00;100149.56;1788287;78;21005;-62
2021/03/09 08:28:46;;;;;;;4.62;2.72;;;;;;;1.36;100.00;100154.21;1786909;78;21201;-61
2021/03/09 08:31:19;;;;;;;4.50;2.25;;;;;;;1.23;100.00;100160.02;1784408;79;20941;-61
2021/03/09 08:34:10;;;;;;;5.05;2.70;;;;;;;1.17;100.00;100159.56;1803004;79;21105;-63
2021/03/09 08:36:38;;;;;;;4.80;2.40;;;;;;;1.20;100.00;100168.78;1792336;79;21093;-62
2021/03/09 08:39:12;;;;;;;4.60;2.70;;;;;;;1.26;100.00;100180.31;1789537;78;20988;-61
2021/03/09 08:41:45;;;;;;;4.67;2.12;;;;;;;1.21;100.00;100186.64;1790424;79;21146;-63
2021/03/09 08:44:19;;;;;;;4.12;1.87;;;;;;;0.99;100.00;100186.75;1783420;79;21338;-62
2021/03/09 08:47:10;;;;;;;4.45;2.15;;;;;;;0.69;100.00;100193.37;1787758;79;21447;-62
2021/03/09 08:49:45;;;;;;;3.98;2.30;;;;;;;0.47;100.00;100197.27;1800064;78;21209;-62
2021/03/09 08:52:24;;;;;;;5.22;2.83;;;;;;;0.53;100.00;100197.24;1730329;82;21188;-62
2021/03/09 08:54:52;;;;;;;6.33;2.98;;;;;;;0.91;100.00;100195.50;1735219;81;22115;-66
2021/03/09 08:57:24;;;;;;;5.25;3.00;;;;;;;1.60;100.00;100186.88;1714891;81;21502;-61
2021/03/09 09:00:03;;;;;;;4.80;2.90;;;;;;;2.19;100.00;100186.65;1742258;81;21624;-61
2021/03/09 09:02:31;;;;;;;4.05;2.50;;;;;;;2.62;100.00;100186.84;1720444;81;21064;-62
2021/03/09 09:05:03;;;;;;;5.35;2.87;;;;;;;2.98;100.00;100184.06;1738786;81;21472;-63
2021/03/09 09:07:43;;;;;;;4.17;2.43;;;;;;;3.41;100.00;100180.25;1730684;81;21198;-61
2021/03/09 09:10:19;;;;;;;4.35;2.35;;;;;;;3.41;100.00;100180.25;1739310;81;21494;-62
2021/03/09 09:12:54;;;;;;;5.55;2.95;;;;;;;3.57;100.00;100177.91;1737397;81;22252;-62
2021/03/09 09:15:30;;;;;;;5.20;2.55;;;;;;;3.97;100.00;100188.89;1729566;80;21021;-62
2021/03/09 09:18:01;;;;;;;6.75;2.40;;;;;;;4.14;100.00;100190.73;1739587;81;21124;-62
2021/03/09 09:20:44;;;;;;;4.57;2.47;;;;;;;3.71;100.00;100197.73;1728775;80;21105;-63
2021/03/09 09:23:30;;;;;;;4.60;2.72;;;;;;;3.13;100.00;100203.31;1720325;82;21247;-62
2021/03/09 09:28:41;;;;;;;4.07;2.00;;;;;;;2.39;100.00;100196.06;1820721;77;23468;-62
2021/03/09 09:31:15;;;;;;;4.78;2.35;;;;;;;2.51;100.00;100203.67;1801847;78;20994;-63
2021/03/09 09:33:52;;;;;;;4.62;2.30;;;;;;;2.99;100.00;100200.33;1784473;79;22281;-65
2021/03/09 09:36:22;;;;;;;4.85;2.17;;;;;;;3.54;100.00;100202.66;1790375;79;21097;-63
2021/03/09 09:38:53;;;;;;;4.58;2.35;;;;;;;3.92;100.00;100200.92;1788450;78;20987;-62
2021/03/09 09:41:22;;;;;;;3.60;1.98;;;;;;;4.41;100.00;100202.81;1798984;79;20967;-62
2021/03/09 09:43:50;;;;;;;3.87;2.15;;;;;;;4.58;100.00;100208.50;1800293;79;21117;-61
2021/03/09 09:46:25;;;;;;;4.05;2.47;;;;;;;4.66;100.00;100210.35;1787647;79;21192;-61
2021/03/09 09:48:53;;;;;;;4.03;2.17;;;;;;;4.83;100.00;100213.90;1792042;79;21029;-60
2021/03/09 09:51:24;;;;;;;3.35;2.05;;;;;;;4.77;100.00;100214.02;1795563;79;21057;-60
2021/03/09 09:53:52;;;;;;;4.22;2.25;;;;;;;4.41;100.00;100222.17;1779713;78;21030;-63
2021/03/09 09:56:24;;;;;;;3.85;1.82;;;;;;;3.81;100.00;100224.30;1799968;79;21176;-61
2021/03/09 09:58:57;;;;;;;4.78;2.37;;;;;;;3.12;100.00;100239.04;1794271;79;22252;-61
2021/03/09 10:01:39;;;;;;;3.12;1.80;;;;;;;2.54;100.00;100236.39;1788428;78;21192;-64
2021/03/09 10:04:09;;;;;;;4.25;1.90;;;;;;;2.12;100.00;100240.82;1801750;78;21489;-62
2021/03/09 10:06:50;;;;;;;4.25;2.00;;;;;;;1.88;100.00;100234.70;1798343;79;21121;-64
2021/03/09 10:09:23;;;;;;;3.87;1.75;;;;;;;1.77;100.00;100227.88;1798509;78;21164;-63
2021/03/09 10:11:56;;;;;;;6.10;2.70;;;;;;;1.63;100.00;100238.46;1793215;79;21361;-62
2021/03/09 10:14:30;;;;;;;5.25;2.60;;;;;;;1.54;100.00;100249.03;1799265;79;21565;-61
2021/03/09 10:16:58;;;;;;;5.75;3.58;;;;;;;1.43;100.00;100243.95;1745913;82;21077;-63
2021/03/09 10:19:37;;;;;;;5.30;2.92;;;;;;;1.39;100.00;100245.95;1728572;80;21168;-64
2021/03/09 10:22:23;;;;;;;5.55;3.58;;;;;;;1.40;100.00;100246.31;1742833;81;21667;-63
2021/03/09 10:24:51;;;;;;;7.12;3.58;;;;;;;1.43;100.00;100247.33;1754834;81;22151;-62
2021/03/09 10:27:25;;;;;;;6.55;2.35;;;;;;;1.53;100.00;100249.98;1734571;81;21185;-61
2021/03/09 10:29:56;;;;;;;6.47;2.60;;;;;;;1.58;100.00;100256.02;1762421;80;21026;-62
2021/03/09 10:32:24;;;;;;;4.60;2.67;;;;;;;1.57;100.00;100256.50;1729305;81;21588;-62
2021/03/09 10:34:54;;;;;;;5.75;3.02;;;;;;;1.59;100.00;100258.92;1766507;80;21062;-63
2021/03/09 10:37:39;;;;;;;7.60;3.62;;;;;;;1.62;100.00;100252.26;1780914;79;21157;-62
2021/03/09 10:40:11;;;;;;;6.15;3.40;;;;;;;1.65;100.00;100260.53;1779202;79;21133;-61
2021/03/09 10:42:49;;;;;;;6.42;2.90;;;;;;;1.68;100.00;100268.00;1781024;79;21003;-62
2021/03/09 10:45:26;;;;;;;5.47;2.55;;;;;;;1.77;100.00;100261.75;1777550;79;21644;-62
2021/03/09 10:48:01;;;;;;;5.12;2.77;;;;;;;1.83;100.00;100261.26;1796450;79;21488;-63
2021/03/09 10:50:38;;;;;;;9.03;4.95;;;;;;;1.83;100.00;100259.98;1710257;82;21171;-67
2021/03/09 10:53:06;;;;;;;6.08;2.80;;;;;;;1.92;100.00;100254.88;1724371;81;21162;-62
2021/03/09 10:55:34;;;;;;;4.78;2.33;;;;;;;2.07;100.00;100256.64;1731877;81;21533;-62
2021/03/09 10:58:02;;;;;;;4.80;2.35;;;;;;;2.18;100.00;100253.17;1771315;79;21189;-63
2021/03/09 11:00:31;;;;;;;4.42;2.58;;;;;;;2.34;100.00;100252.69;1766119;79;21097;-64
2021/03/09 11:02:59;;;;;;;6.85;2.92;;;;;;;2.54;100.00;100245.39;1724051;80;21374;-61
2021/03/09 11:05:27;;;;;;;5.47;2.42;;;;;;;2.73;100.00;100254.08;1746319;80;20959;-61
2021/03/09 11:07:55;;;;;;;3.22;1.80;;;;;;;2.65;100.00;100256.03;1732871;81;21056;-60
2021/03/09 11:10:24;;;;;;;3.50;1.62;;;;;;;2.34;100.00;100266.84;1735862;81;20941;-64
2021/03/09 11:12:52;;;;;;;3.58;1.85;;;;;;;1.88;100.00;100265.55;1754372;81;21003;-63
2021/03/09 11:15:22;;;;;;;4.22;2.47;;;;;;;1.39;100.00;100264.40;1751812;80;21385;-62
2021/03/09 11:17:49;;;;;;;3.55;1.82;;;;;;;1.21;100.00;100266.23;1790354;79;21034;-63
2021/03/09 11:20:19;;;;;;;5.40;2.65;;;;;;;1.47;100.00;100260.73;1722232;82;20949;-63
2021/03/09 11:22:46;;;;;;;4.58;2.37;;;;;;;1.85;100.00;100254.22;1725555;82;21163;-63
2021/03/09 11:25:16;;;;;;;5.83;2.85;;;;;;;2.06;100.00;100255.02;1723924;80;21584;-63
2021/03/09 11:27:44;;;;;;;6.15;3.22;;;;;;;2.17;100.00;100256.22;1746135;80;21287;-62
2021/03/09 11:30:14;;;;;;;3.87;2.12;;;;;;;2.24;100.00;100265.53;1728848;82;21019;-67
2021/03/09 11:32:41;;;;;;;3.47;2.17;;;;;;;2.29;100.00;100256.14;1750485;81;21134;-67
2021/03/09 11:35:11;;;;;;;6.75;2.92;;;;;;;2.22;100.00;100274.31;1739560;81;21165;-60
2021/03/09 11:37:39;;;;;;;4.22;2.15;;;;;;;2.02;100.00;100275.50;1790288;79;21081;-61
2021/03/09 11:40:09;;;;;;;4.37;1.98;;;;;;;1.78;100.00;100285.22;1728017;82;22700;-62
2021/03/09 11:42:36;;;;;;;2.87;1.57;;;;;;;1.61;100.00;100279.70;1741969;80;21098;-61
2021/03/09 11:45:06;;;;;;;4.12;2.02;;;;;;;1.60;100.00;100281.94;1735757;82;21256;-61
2021/03/09 11:47:34;;;;;;;5.10;2.30;;;;;;;1.61;100.00;100288.70;1715054;82;21117;-61
2021/03/09 11:50:04;;;;;;;3.67;1.80;;;;;;;1.64;100.00;100288.46;1733368;81;21173;-61
2021/03/09 11:52:32;;;;;;;4.62;2.30;;;;;;;1.62;100.00;100293.37;1738832;82;21159;-67
2021/03/09 11:55:00;;;;;;;3.60;1.57;;;;;;;1.55;100.00;100294.33;1729654;81;21275;-61
2021/03/09 11:57:29;;;;;;;3.87;2.08;;;;;;;1.50;100.00;100293.89;1723761;82;21628;-62
2021/03/09 11:59:59;;;;;;;5.92;3.00;;;;;;;1.48;100.00;100298.36;1727893;82;21232;-62
2021/03/09 12:02:28;;;;;;;8.23;3.55;;;;;;;1.50;100.00;100301.59;1729769;82;21070;-67
2021/03/09 12:04:56;;;;;;;8.53;3.83;;;;;;;1.55;100.00;100307.17;1730401;81;21486;-61
2021/03/09 12:07:25;;;;;;;4.25;2.50;;;;;;;1.51;100.00;100310.92;1735582;82;21054;-62
2021/03/09 12:09:55;;;;;;;5.17;2.72;;;;;;;1.36;100.00;100316.00;1732504;81;21572;-61
2021/03/09 12:12:22;;;;;;;4.72;2.67;;;;;;;1.02;100.00;100340.48;1743414;81;21161;-61
2021/03/09 12:14:50;;;;;;;5.95;2.22;;;;;;;0.63;100.00;100344.38;1752813;80;21645;-60
2021/03/09 12:17:19;;;;;;;3.75;2.10;;;;;;;0.30;100.00;100347.73;1756504;81;22478;-63
2021/03/09 12:19:47;;;;;;;4.30;2.20;;;;;;;0.00;100.00;100346.53;1725045;82;21765;-63
2021/03/09 12:22:15;;;;;;;5.53;2.27;;;;;;;-0.21;100.00;100358.34;1739379;81;21072;-63
2021/03/09 12:24:44;;;;;;;7.35;3.60;;;;;;;-0.34;100.00;100361.79;1729574;82;21671;-67
2021/03/09 12:27:12;;;;;;;3.87;1.95;;;;;;;-0.35;100.00;100361.41;1759868;81;21217;-62
2021/03/09 12:29:40;;;;;;;4.10;2.15;;;;;;;-0.26;100.00;100361.23;1764533;80;21374;-63
2021/03/09 12:32:09;;;;;;;4.33;2.33;;;;;;;-0.22;100.00;100360.55;1766544;80;21137;-62
2021/03/09 12:34:38;;;;;;;3.20;1.80;;;;;;;-0.18;100.00;100358.94;1769753;80;21045;-62
2021/03/09 12:37:08;;;;;;;5.35;2.40;;;;;;;-0.12;100.00;100353.81;1712430;82;21212;-64
2021/03/09 12:39:38;;;;;;;3.98;2.00;;;;;;;-0.11;100.00;100359.31;1735544;82;21053;-62
2021/03/09 12:42:07;;;;;;;3.77;2.30;;;;;;;-0.11;100.00;100359.31;1726738;82;21310;-64
2021/03/09 12:44:34;;;;;;;3.85;1.95;;;;;;;-0.09;100.00;100369.78;1783480;79;21575;-62
2021/03/09 12:47:02;;;;;;;4.05;1.92;;;;;;;-0.02;100.00;100365.84;1791261;79;21119;-63
2021/03/09 12:49:30;;;;;;;3.50;1.70;;;;;;;0.07;100.00;100368.19;1803930;79;21560;-62
2021/03/09 12:51:58;;;;;;;3.98;2.33;;;;;;;0.05;100.00;100368.78;1789013;79;21050;-62
2021/03/09 12:54:26;;;;;;;4.87;2.12;;;;;;;0.06;100.00;100374.72;1800496;79;21201;-63
2021/03/09 12:56:55;;;;;;;3.33;1.77;;;;;;;0.06;100.00;100373.44;1734669;82;22148;-61
2021/03/09 12:59:23;;;;;;;3.20;1.80;;;;;;;0.05;100.00;100384.62;1701680;81;22538;-62
2021/03/09 13:01:50;;;;;;;4.47;2.30;;;;;;;-0.08;100.00;100383.41;1737108;81;21197;-62
2021/03/09 13:04:21;;;;;;;3.67;1.72;;;;;;;-0.23;100.00;100390.92;1795916;78;21635;-66
2021/03/09 13:06:49;;;;;;;9.60;4.00;;;;;;;-0.43;100.00;100393.16;1795305;79;22141;-62
2021/03/09 13:09:41;;;;;;;15.05;7.28;;;;;;;-0.54;100.00;100391.82;1783920;79;21171;-65
2021/03/09 13:12:09;;;;;;;;;;;;;;;-0.51;100.00;100392.89;1711579;82;21166;-62
2021/03/09 13:14:37;;;;;;;7.80;3.47;;;;;;;-0.37;100.00;100399.14;1700051;82;20214;-61
2021/03/09 13:17:05;;;;;;;5.17;2.33;;;;;;;-0.30;100.00;100397.78;1702046;83;21620;-61
2021/03/09 13:19:34;;;;;;;3.85;1.98;;;;;;;-0.16;100.00;100398.52;1712042;82;22811;-61
2021/03/09 13:22:02;;;;;;;3.80;1.80;;;;;;;0.02;100.00;100397.19;1712429;83;21041;-67
2021/03/09 13:24:31;;;;;;;3.58;1.90;;;;;;;0.12;100.00;100394.32;1711982;83;21156;-63
2021/03/09 13:27:00;;;;;;;6.33;2.92;;;;;;;0.16;100.00;100403.41;1714497;83;21091;-62
2021/03/09 13:29:28;;;;;;;7.15;3.10;;;;;;;0.13;100.00;100401.07;1698380;83;22165;-61
2021/03/09 13:31:55;;;;;;;9.80;5.35;;;;;;;0.02;100.00;100412.56;1705646;83;21192;-65
2021/03/09 13:34:23;;;;;;;13.35;6.70;;;;;;;-0.20;100.00;100414.57;1711752;83;21037;-61
2021/03/09 13:36:51;;;;;;;8.08;3.52;;;;;;;-0.45;100.00;100418.08;1711301;82;21017;-61
2021/03/09 13:39:19;;;;;;;7.58;3.92;;;;;;;-0.75;100.00;100433.37;1705558;83;21084;-63
2021/03/09 13:41:48;;;;;;;7.33;3.27;;;;;;;-1.07;100.00;100431.72;1711472;83;21082;-61
2021/03/09 13:44:19;;;;;;;6.78;3.60;;;;;;;-1.37;100.00;100435.05;1713499;83;21394;-63
2021/03/09 13:46:47;;;;;;;6.08;3.65;;;;;;;-1.59;100.00;100438.20;1713484;83;21179;-62
2021/03/09 13:49:15;;;;;;;6.67;3.62;;;;;;;-1.66;100.00;100445.47;1704007;82;21560;-64
2021/03/09 13:51:44;;;;;;;8.90;3.17;;;;;;;-1.71;100.00;100439.83;1701082;83;21118;-64
2021/03/09 13:54:12;;;;;;;4.50;2.67;;;;;;;-1.71;100.00;100440.64;1706955;83;21259;-61
2021/03/09 13:56:39;;;;;;;7.28;3.65;;;;;;;-1.71;100.00;100440.64;1714861;83;21212;-60
2021/03/09 13:59:07;;;;;;;4.87;2.70;;;;;;;-1.71;100.00;100447.48;1713230;83;21239;-61
2021/03/09 14:01:35;;;;;;;4.55;2.65;;;;;;;-1.67;100.00;100447.65;1712020;83;21195;-61
2021/03/09 14:04:05;;;;;;;6.80;2.92;;;;;;;-1.65;100.00;100453.95;1711098;83;21041;-61
2021/03/09 14:06:33;;;;;;;8.58;2.58;;;;;;;-1.67;100.00;100451.95;1710395;83;21594;-62
2021/03/09 14:09:01;;;;;;;4.17;2.10;;;;;;;-1.72;100.00;100450.51;1707630;83;22247;-61
2021/03/09 14:11:29;;;;;;;6.08;2.27;;;;;;;-1.75;100.00;100451.16;1688519;83;21049;-61
2021/03/09 14:13:56;;;;;;;3.35;2.08;;;;;;;-1.78;100.00;100451.36;1673477;83;21168;-61
2021/03/09 14:16:24;;;;;;;3.45;1.98;;;;;;;-1.77;100.00;100446.17;1644106;86;21181;-64
2021/03/09 14:18:51;;;;;;;4.20;2.12;;;;;;;-1.74;100.00;100447.72;1680424;83;21698;-63
2021/03/09 14:21:20;;;;;;;4.78;2.52;;;;;;;-1.74;100.00;100452.83;1643844;86;21272;-63
2021/03/09 14:23:48;;;;;;;4.37;1.82;;;;;;;-1.76;100.00;100457.20;1680889;83;21654;-65
2021/03/09 14:26:15;;;;;;;3.62;1.80;;;;;;;-1.80;100.00;100460.87;1678291;83;21212;-61
2021/03/09 14:28:43;;;;;;;3.65;1.85;;;;;;;-1.83;100.00;100463.16;1640247;85;21237;-64
2021/03/09 14:31:11;;;;;;;4.58;1.90;;;;;;;-1.85;100.00;100465.01;1676729;83;21144;-63
2021/03/09 14:33:39;;;;;;;3.45;1.70;;;;;;;-1.90;100.00;100461.09;1632717;86;21231;-63
2021/03/09 14:36:08;;;;;;;3.75;1.60;;;;;;;-1.93;100.00;100466.39;1623078;87;21262;-63
2021/03/09 14:38:37;;;;;;;4.65;2.10;;;;;;;-1.98;100.00;100474.36;1624715;86;21692;-62
2021/03/09 14:41:07;;;;;;;4.10;2.08;;;;;;;-2.04;100.00;100470.47;1634632;85;21018;-63
2021/03/09 14:43:35;;;;;;;3.30;1.85;;;;;;;-2.08;100.00;100471.58;1673369;83;20946;-62
2021/03/09 14:46:04;;;;;;;5.28;2.20;;;;;;;-2.09;100.00;100481.88;1634206;85;21215;-64
2021/03/09 14:48:33;;;;;;;5.83;3.50;;;;;;;-2.14;100.00;100489.02;1671231;83;21697;-61
2021/03/09 14:51:01;;;;;;;5.67;3.12;;;;;;;-2.23;100.00;100489.14;1672775;83;21216;-64
2021/03/09 14:53:30;;;;;;;4.62;2.67;;;;;;;-2.32;100.00;100490.50;1673642;83;21081;-62
2021/03/09 14:55:58;;;;;;;5.28;2.90;;;;;;;-2.39;100.00;100498.17;1638580;85;21094;-66
2021/03/09 14:58:26;;;;;;;9.25;2.80;;;;;;;-2.45;100.00;100499.84;1611735;87;22028;-62
2021/03/09 15:00:54;;;;;;;4.87;2.80;;;;;;;-2.51;100.00;100498.47;1677702;83;21854;-62
2021/03/09 15:03:22;;;;;;;5.03;2.55;;;;;;;-2.54;100.00;100500.39;1645379;85;21706;-63
2021/03/09 15:05:50;;;;;;;6.10;3.27;;;;;;;-2.59;100.00;100506.23;1672545;83;21656;-62
2021/03/09 15:08:18;;;;;;;4.50;2.50;;;;;;;-2.66;100.00;100502.41;1646284;85;21498;-63
2021/03/09 15:10:47;;;;;;;4.55;2.67;;;;;;;-2.71;100.00;100511.63;1681443;83;21627;-66
2021/03/09 15:13:16;;;;;;;6.03;3.00;;;;;;;-2.78;100.00;100520.09;1663679;85;21163;-62
2021/03/09 15:15:46;;;;;;;5.45;2.60;;;;;;;-2.83;100.00;100518.73;1638565;86;21602;-62
2021/03/09 15:18:14;;;;;;;6.55;3.87;;;;;;;-2.87;100.00;100528.30;1690744;83;21577;-67
2021/03/09 15:20:43;;;;;;;7.70;3.40;;;;;;;-2.92;100.00;100535.84;1690147;83;22272;-64
2021/03/09 15:23:11;;;;;;;6.30;3.60;;;;;;;-2.98;100.00;100538.31;1683903;83;21579;-63
2021/03/09 15:25:44;;;;;;;7.55;3.85;;;;;;;-3.05;100.00;100540.39;1701568;84;21019;-62
2021/03/09 15:28:13;;;;;;;6.45;3.52;;;;;;;-3.12;100.00;100537.00;1687862;83;21070;-67
2021/03/09 15:30:41;;;;;;;6.12;3.80;;;;;;;-3.19;100.00;100543.72;1685238;84;20982;-64
2021/03/09 15:33:09;;;;;;;6.67;3.55;;;;;;;-3.28;100.00;100547.27;1684005;83;21156;-63
2021/03/09 15:35:37;;;;;;;7.47;3.45;;;;;;;-3.34;100.00;100561.63;1682420;84;21175;-63
2021/03/09 15:38:05;;;;;;;7.67;3.92;;;;;;;-3.42;100.00;100564.14;1686323;83;21203;-63
2021/03/09 15:40:33;;;;;;;6.08;3.50;;;;;;;-3.47;100.00;100567.88;1679612;83;21599;-64
2021/03/09 15:43:01;;;;;;;6.28;3.20;;;;;;;-3.52;100.00;100569.86;1691831;83;22150;-63
2021/03/09 15:45:29;;;;;;;5.22;2.90;;;;;;;-3.58;100.00;100569.73;1684092;83;21514;-63
2021/03/09 15:47:57;;;;;;;6.85;3.35;;;;;;;-3.62;100.00;100574.63;1699915;83;22744;-63
2021/03/09 15:50:25;;;;;;;6.75;3.47;;;;;;;-3.67;100.00;100577.90;1697107;83;21666;-63
2021/03/09 15:52:53;;;;;;;4.97;2.67;;;;;;;-3.72;100.00;100591.31;1698740;83;21391;-63
2021/03/09 15:55:21;;;;;;;5.55;2.37;;;;;;;-3.77;100.00;100590.30;1704622;83;21141;-63
2021/03/09 15:57:49;;;;;;;6.65;2.92;;;;;;;-3.81;100.00;100597.73;1685691;83;21061;-63
2021/03/09 16:03:00;;;;;;;4.55;2.52;;;;;;;-3.91;100.00;100615.68;1652094;86;21261;-62
2021/03/09 16:05:28;;;;;;;7.28;2.75;;;;;;;-3.97;100.00;100620.66;1636082;87;21199;-62
2021/03/09 16:07:56;;;;;;;9.05;3.27;;;;;;;-3.99;100.00;100622.45;1645060;86;21138;-63